Historique des stations

Station météo de Ménétréols-sous-Vatan

Altitude de la station : 192 m







Données météorologiques pour le 06/10/2022
Date
Heure
Températures Humidité Point de rosée Vitesse
du vent
Direction Rafales Windchill Pression Pluviométrie
Cumul
Date
Heure
Températures Humidité Point de rosée Vitesse
du vent
Direction Rafales Windchill Pression Pluviométrie
Cumul
06/10/2022 23:4611.3 °C84 %8.9 °C---11.1 1029 hPa-
06/10/2022 23:4511.3 °C84 %8.9 °C-SSO19 km/h11.1 1029 hPa-
06/10/2022 23:3111.8 °C83 %8.9 °C-SO5 km/h11.7 1029 hPa-
06/10/2022 23:2911.7 °C83 %8.9 °C-SO19 km/h11.7 1029 hPa-
06/10/2022 23:1611.8 °C82 %8.9 °C---11.7 1029 hPa-
06/10/2022 23:1511.8 °C82 %8.9 °C-SSO19 km/h11.7 1029 hPa-
06/10/2022 23:0311.9 °C81 %8.9 °C---12.2 1029 hPa-
06/10/2022 23:0011.9 °C81 %8.9 °C-OSO19 km/h12.2 1029 hPa-
06/10/2022 22:4812.1 °C79 %8.3 °C---12.2 1029 hPa-
06/10/2022 22:4512.2 °C78 %8.3 °C-SSO19 km/h12.2 1029 hPa-
06/10/2022 22:3112.0 °C79 %8.3 °C---12.2 1029 hPa-
06/10/2022 22:3012.0 °C80 %8.9 °C-SO19 km/h12.2 1029 hPa-
06/10/2022 22:1612.2 °C79 %8.9 °C---12.2 1029 hPa-
06/10/2022 22:1512.1 °C79 %8.3 °C-SO19 km/h12.2 1029 hPa-
06/10/2022 22:0112.4 °C77 %8.3 °C---12.2 1029 hPa-
06/10/2022 21:5912.5 °C77 %8.3 °C-SO19 km/h12.8 1029 hPa-
06/10/2022 21:4612.3 °C76 %8.3 °C---12.2 1029 hPa-
06/10/2022 21:4512.3 °C76 %8.3 °C-SO19 km/h12.2 1029 hPa-
06/10/2022 21:3112.3 °C77 %8.3 °C---12.2 1029 hPa-
06/10/2022 21:3012.3 °C77 %8.3 °C-SO19 km/h12.2 1029 hPa-
06/10/2022 21:1712.1 °C77 %8.3 °C---12.2 1029 hPa-
06/10/2022 21:1412.1 °C77 %8.3 °C-SO19 km/h12.2 1029 hPa-
06/10/2022 21:0112.1 °C78 %8.3 °C---12.2 1030 hPa-
06/10/2022 21:0012.1 °C78 %8.3 °C-SO19 km/h12.2 1030 hPa-
06/10/2022 20:4612.2 °C78 %8.3 °C---12.2 1030 hPa-
06/10/2022 20:4512.3 °C78 %8.3 °C-SO19 km/h12.2 1029 hPa-
06/10/2022 20:3212.4 °C77 %8.3 °C---12.2 1030 hPa-
06/10/2022 20:3012.5 °C76 %8.3 °C-SO19 km/h12.8 1030 hPa-
06/10/2022 20:1613.1 °C74 %8.3 °C---13.3 1030 hPa-
06/10/2022 20:1513.2 °C74 %8.9 °C-SO19 km/h13.3 1030 hPa-
06/10/2022 20:0113.6 °C71 %8.3 °C---13.3 1030 hPa-
06/10/2022 20:0013.6 °C71 %8.3 °C-OSO19 km/h13.9 1030 hPa-
06/10/2022 19:4614.6 °C68 %8.9 °C---14.4 1030 hPa-
06/10/2022 19:4514.7 °C67 %8.3 °C-OSO19 km/h15.0 1030 hPa-
06/10/2022 19:3214.7 °C69 %8.9 °C---15.0 1029 hPa-
06/10/2022 19:3014.7 °C68 %8.9 °C-SO19 km/h15.0 1029 hPa-
06/10/2022 19:1715.7 °C66 %9.4 °C---15.6 1029 hPa-
06/10/2022 19:1515.7 °C65 %8.9 °C-SO19 km/h15.6 1029 hPa-
06/10/2022 19:0216.4 °C64 %9.4 °C---16.7 1029 hPa-
06/10/2022 19:0016.6 °C64 %9.4 °C-SSO19 km/h16.7 1029 hPa-
06/10/2022 18:4717.1 °C59 %8.9 °C---17.2 1029 hPa-
06/10/2022 18:4517.1 °C60 %9.4 °C-SO19 km/h17.2 1029 hPa-
06/10/2022 18:3217.5 °C58 %8.9 °C---17.8 1029 hPa-
06/10/2022 18:3017.6 °C59 %9.4 °C-SSO19 km/h17.8 1030 hPa-
06/10/2022 18:1717.8 °C55 %8.3 °C---17.8 1030 hPa-
06/10/2022 18:1517.9 °C55 %8.9 °C-S19 km/h17.8 1030 hPa-
06/10/2022 18:0218.1 °C53 %8.3 °C---18.3 1030 hPa-
06/10/2022 18:0018.1 °C54 %8.3 °C-SSE19 km/h18.3 1030 hPa-
06/10/2022 17:4718.2 °C55 %8.9 °C---18.3 1030 hPa-
06/10/2022 17:4518.1 °C54 %8.3 °C-OSO19 km/h18.3 1030 hPa-
06/10/2022 17:3218.2 °C52 %7.8 °C---18.3 1030 hPa-
06/10/2022 17:3018.2 °C52 %7.8 °C-SSO19 km/h18.3 1030 hPa-
06/10/2022 17:1718.2 °C54 %8.3 °C---18.3 1030 hPa-
06/10/2022 17:1518.2 °C53 %8.3 °C-SO19 km/h18.3 1030 hPa-
06/10/2022 17:0218.1 °C52 %7.8 °C---18.3 1030 hPa-
06/10/2022 17:0018.2 °C53 %8.3 °C-SSO19 km/h18.3 1030 hPa-
06/10/2022 16:4718.1 °C55 %8.9 °C---18.3 1030 hPa-
06/10/2022 16:4518.1 °C55 %8.9 °C-SO19 km/h18.3 1030 hPa-
06/10/2022 16:3218.1 °C51 %7.8 °C---18.3 1030 hPa-
06/10/2022 16:3018.1 °C51 %7.8 °C-SO19 km/h18.3 1030 hPa-
06/10/2022 16:1718.0 °C54 %8.3 °C---17.8 1030 hPa-
06/10/2022 16:1518.0 °C54 %8.3 °C-OSO19 km/h17.8 1030 hPa-
06/10/2022 16:0217.8 °C53 %7.8 °C---17.8 1031 hPa-
06/10/2022 16:0017.9 °C55 %8.9 °C-S19 km/h17.8 1031 hPa-
06/10/2022 15:4717.7 °C56 %8.9 °C---17.8 1031 hPa-
06/10/2022 15:4517.7 °C57 %8.9 °C-S19 km/h17.8 1031 hPa-
06/10/2022 15:3117.6 °C58 %8.9 °C---17.8 1031 hPa-
06/10/2022 15:2917.6 °C56 %8.3 °C-SE19 km/h17.8 1031 hPa-
06/10/2022 15:1617.3 °C60 %9.4 °C---17.2 1031 hPa-
06/10/2022 15:1417.4 °C59 %9.4 °C-S19 km/h17.2 1031 hPa-
06/10/2022 15:0117.2 °C61 %9.4 °C---17.2 1031 hPa-
06/10/2022 14:5917.2 °C61 %9.4 °C-SO19 km/h17.2 1031 hPa-
06/10/2022 14:4717.2 °C63 %10.0 °C---17.2 1031 hPa-
06/10/2022 14:4517.2 °C63 %10.0 °C-SSE19 km/h17.2 1031 hPa-
06/10/2022 14:3216.9 °C62 %9.4 °C---17.2 1032 hPa-
06/10/2022 14:3016.9 °C64 %10.0 °C-SO19 km/h16.7 1032 hPa-
06/10/2022 14:1616.7 °C64 %10.0 °C---16.7 1032 hPa-
06/10/2022 14:1516.7 °C65 %10.0 °C-SSO19 km/h16.7 1032 hPa-
06/10/2022 14:0116.3 °C65 %9.4 °C---16.1 1032 hPa-
06/10/2022 13:5916.3 °C65 %9.4 °C-SO19 km/h16.1 1032 hPa-
06/10/2022 13:4716.3 °C68 %10.6 °C---16.1 1032 hPa-
06/10/2022 13:4516.3 °C69 %10.6 °C-SSO19 km/h16.1 1032 hPa-
06/10/2022 13:3215.9 °C71 %10.6 °C---16.1 1032 hPa-
06/10/2022 13:3015.8 °C71 %10.6 °C-SO19 km/h16.1 1032 hPa-
06/10/2022 13:1715.7 °C72 %10.6 °C---15.6 1032 hPa-
06/10/2022 13:1515.7 °C75 %11.1 °C-SSO19 km/h15.6 1032 hPa-
06/10/2022 13:0215.4 °C76 %11.1 °C---15.6 1032 hPa-
06/10/2022 13:0015.3 °C74 %10.6 °C-SO19 km/h15.6 1032 hPa-
06/10/2022 12:4715.2 °C76 %11.1 °C---15.0 1032 hPa-
06/10/2022 12:4515.2 °C77 %11.1 °C-SSO19 km/h15.0 1032 hPa-
06/10/2022 12:3214.8 °C77 %10.6 °C---15.0 1032 hPa-
06/10/2022 12:3014.8 °C78 %11.1 °C-SO19 km/h15.0 1032 hPa-
06/10/2022 12:1614.6 °C78 %10.6 °C---14.4 1032 hPa-
06/10/2022 12:1514.6 °C78 %10.6 °C-SSO19 km/h14.4 1032 hPa-
06/10/2022 12:0214.2 °C78 %10.6 °C---14.4 1032 hPa-
06/10/2022 12:0014.2 °C78 %10.6 °C-SSE19 km/h14.4 1032 hPa-
06/10/2022 11:4614.1 °C78 %10.6 °C---13.9 1032 hPa-
06/10/2022 11:4414.1 °C79 %10.6 °C-SE19 km/h13.9 1032 hPa-
06/10/2022 11:3113.6 °C80 %10.0 °C---13.9 1032 hPa-
06/10/2022 11:2913.5 °C80 %10.0 °C-SSE19 km/h13.3 1032 hPa-
06/10/2022 11:1613.3 °C81 %10.0 °C---13.3 1032 hPa-
06/10/2022 11:1413.3 °C82 %10.6 °C-SSE19 km/h13.3 1032 hPa-
06/10/2022 11:0113.1 °C82 %10.0 °C6 km/hS14 km/h13.3 1032 hPa-
06/10/2022 10:5913.1 °C82 %10.0 °C-S19 km/h13.3 1032 hPa-
06/10/2022 10:4613.0 °C83 %10.0 °C-SSE11 km/h12.8 1032 hPa-
06/10/2022 10:4513.0 °C83 %10.0 °C10 km/hSSO19 km/h11.7 1032 hPa-
06/10/2022 10:3112.7 °C85 %10.0 °C5 km/hSSO10 km/h12.8 1032 hPa-
06/10/2022 10:3012.6 °C86 %10.6 °C6 km/hS19 km/h12.8 1032 hPa-
06/10/2022 10:1612.3 °C88 %10.6 °C5 km/hS13 km/h12.2 1032 hPa-
06/10/2022 10:1512.3 °C88 %10.6 °C5 km/hSSO19 km/h12.2 1032 hPa-
06/10/2022 10:0111.9 °C91 %10.6 °C5 km/hSSE8 km/h11.7 1032 hPa-
06/10/2022 10:0011.9 °C91 %10.6 °C6 km/hS19 km/h11.7 1032 hPa-
06/10/2022 09:4611.6 °C92 %10.6 °C5 km/hS8 km/h11.7 1032 hPa-
06/10/2022 09:4511.6 °C92 %10.6 °C3 km/hS19 km/h11.7 1032 hPa-
06/10/2022 09:3111.6 °C93 %10.6 °C---11.7 1032 hPa-
06/10/2022 09:3011.6 °C93 %10.6 °C-SSE19 km/h11.7 1032 hPa-
06/10/2022 09:1611.3 °C95 %10.6 °C---11.1 1032 hPa-
06/10/2022 09:1511.3 °C95 %10.6 °C-S19 km/h11.1 1032 hPa-
06/10/2022 09:0111.0 °C96 %10.6 °C---11.1 1032 hPa-
06/10/2022 09:0011.0 °C96 %10.6 °C-SSE19 km/h11.1 1031 hPa-
06/10/2022 08:4610.8 °C96 %10.0 °C---10.6 1031 hPa-
06/10/2022 08:4510.8 °C96 %10.0 °C-SSE19 km/h10.6 1031 hPa-
06/10/2022 08:3210.8 °C96 %10.0 °C2 km/hSSE6 km/h10.6 1031 hPa-
06/10/2022 08:3010.8 °C96 %10.0 °C2 km/hS19 km/h10.6 1031 hPa-
06/10/2022 08:1710.9 °C96 %10.6 °C---11.1 1031 hPa-
06/10/2022 08:1510.9 °C95 %10.0 °C-SE19 km/h11.1 1031 hPa-
06/10/2022 08:0111.2 °C95 %10.6 °C---11.1 1031 hPa-
06/10/2022 08:0011.2 °C95 %10.6 °C-SE19 km/h11.1 1031 hPa-
06/10/2022 07:4611.4 °C95 %10.6 °C---11.7 1031 hPa-
06/10/2022 07:4511.4 °C95 %10.6 °C-SE19 km/h11.7 1031 hPa-
06/10/2022 07:3211.7 °C95 %11.1 °C---11.7 1031 hPa-
06/10/2022 07:3011.7 °C95 %11.1 °C-S19 km/h11.7 1031 hPa-
06/10/2022 07:1711.8 °C95 %11.1 °C---11.7 1031 hPa-
06/10/2022 07:1511.8 °C95 %11.1 °C-S19 km/h11.7 1031 hPa-
06/10/2022 07:0211.8 °C94 %11.1 °C---11.7 1031 hPa-
06/10/2022 07:0011.8 °C94 %11.1 °C-S19 km/h11.7 1031 hPa-
06/10/2022 06:4711.9 °C94 %11.1 °C---11.7 1031 hPa-
06/10/2022 06:4511.9 °C94 %11.1 °C-S19 km/h11.7 1031 hPa-
06/10/2022 06:3212.0 °C93 %11.1 °C---12.2 1030 hPa-
06/10/2022 06:3012.0 °C93 %11.1 °C-S19 km/h12.2 1030 hPa-
06/10/2022 06:1711.9 °C92 %10.6 °C---12.2 1030 hPa-
06/10/2022 06:1511.9 °C92 %10.6 °C-S19 km/h12.2 1030 hPa-
06/10/2022 06:0211.9 °C92 %10.6 °C---11.7 1030 hPa-
06/10/2022 06:0011.9 °C93 %11.1 °C-S19 km/h11.7 1030 hPa-
06/10/2022 05:4711.9 °C93 %11.1 °C---12.2 1030 hPa-
06/10/2022 05:4511.9 °C93 %11.1 °C-S19 km/h12.2 1030 hPa-
06/10/2022 05:3212.0 °C92 %10.6 °C---12.2 1030 hPa-
06/10/2022 05:3012.0 °C92 %10.6 °C-S19 km/h12.2 1030 hPa-
06/10/2022 05:1712.1 °C92 %11.1 °C---12.2 1030 hPa-
06/10/2022 05:1512.1 °C92 %11.1 °C-S19 km/h12.2 1030 hPa-
06/10/2022 05:0212.1 °C92 %11.1 °C---12.2 1030 hPa-
06/10/2022 05:0012.0 °C91 %10.6 °C-S19 km/h12.2 1030 hPa-
06/10/2022 04:4712.1 °C91 %10.6 °C---12.2 1030 hPa-
06/10/2022 04:4512.1 °C91 %10.6 °C-S19 km/h12.2 1030 hPa-
06/10/2022 04:3212.1 °C91 %10.6 °C-S6 km/h12.2 1029 hPa-
06/10/2022 04:3112.1 °C91 %10.6 °C-S19 km/h12.2 1029 hPa-
06/10/2022 04:1612.1 °C91 %10.6 °C2 km/hS5 km/h12.2 1029 hPa-
06/10/2022 04:1512.1 °C91 %10.6 °C-S19 km/h12.2 1029 hPa-
06/10/2022 04:0112.2 °C90 %10.6 °C3 km/hS10 km/h12.2 1029 hPa-
06/10/2022 03:5912.2 °C89 %10.6 °C3 km/hS19 km/h12.2 1029 hPa-
06/10/2022 03:4612.4 °C89 %10.6 °C6 km/hS13 km/h12.2 1029 hPa-
06/10/2022 03:4412.5 °C90 %11.1 °C6 km/hS19 km/h12.8 1029 hPa-
06/10/2022 03:3113.3 °C89 %11.7 °C14 km/hSE16 km/h11.7 1029 hPa-
06/10/2022 03:2913.4 °C88 %11.7 °C13 km/hSE19 km/h11.7 1029 hPa-
06/10/2022 03:1613.5 °C88 %11.7 °C-SSE5 km/h13.3 1029 hPa-
06/10/2022 03:1513.4 °C88 %11.7 °C-SSE19 km/h13.3 1029 hPa-
06/10/2022 03:0113.4 °C88 %11.7 °C5 km/hSE10 km/h13.3 1029 hPa-
06/10/2022 03:0013.4 °C88 %11.7 °C3 km/hSE19 km/h13.3 1029 hPa-
06/10/2022 02:4613.3 °C89 %11.7 °C5 km/hSSE11 km/h13.3 1029 hPa-
06/10/2022 02:4513.3 °C89 %11.7 °C6 km/hSSE19 km/h13.3 1029 hPa-
06/10/2022 02:3113.5 °C91 %12.2 °C3 km/hSE19 km/h13.3 1029 hPa-
06/10/2022 02:3013.6 °C91 %12.2 °C6 km/hSSE19 km/h13.3 1029 hPa-
06/10/2022 02:1613.9 °C92 %12.8 °C5 km/hSE11 km/h13.9 1029 hPa-
06/10/2022 02:1513.9 °C92 %12.8 °C8 km/hESE16 km/h13.3 1029 hPa-
06/10/2022 02:0114.0 °C91 %12.8 °C5 km/hSSE16 km/h13.9 1028 hPa-
06/10/2022 02:0014.0 °C91 %12.8 °C10 km/hESE16 km/h13.3 1028 hPa-
06/10/2022 01:4714.2 °C91 %12.8 °C3 km/hSE11 km/h14.4 1028 hPa-
06/10/2022 01:4514.2 °C91 %12.8 °C8 km/hSE11 km/h14.4 1028 hPa-
06/10/2022 01:3214.3 °C90 %12.8 °C-ESE13 km/h14.4 1028 hPa0.2 mm
06/10/2022 01:3014.4 °C89 %12.8 °C-ESE45 km/h14.4 1028 hPa0.2 mm
06/10/2022 01:1714.5 °C90 %12.8 °C6 km/hSE14 km/h14.4 1028 hPa0.2 mm
06/10/2022 01:1114.6 °C90 %12.8 °C6 km/hESE45 km/h14.4 1028 hPa0.2 mm
06/10/2022 01:0214.7 °C91 %13.3 °C---14.4 1028 hPa0.2 mm
06/10/2022 01:0014.7 °C91 %13.3 °C-ESE45 km/h15.0 1028 hPa0.2 mm
06/10/2022 00:4714.8 °C91 %13.3 °C---15.0 1027 hPa0.2 mm
06/10/2022 00:4514.8 °C91 %13.3 °C-ESE45 km/h15.0 1027 hPa0.2 mm
06/10/2022 00:3214.6 °C91 %13.3 °C---14.4 1027 hPa0.2 mm
06/10/2022 00:3014.6 °C91 %13.3 °C-ENE45 km/h14.4 1027 hPa0.2 mm
06/10/2022 00:1714.8 °C90 %13.3 °C---15.0 1027 hPa0.2 mm
06/10/2022 00:1614.8 °C90 %13.3 °C-ENE45 km/h15.0 1027 hPa0.2 mm
06/10/2022 00:0215.1 °C89 %13.3 °C---15.0 1027 hPa0.2 mm
06/10/2022 00:0115.2 °C89 %13.3 °C-E45 km/h15.0 1027 hPa0.2 mm


Minima :

Température : 10.8 °C
Humidité : 51 %
Point de rosée : 7.8 °C
Vent moyen : 2 km/h
Windchill : 10.6
Pression atm. : 1027 hPa
Maxima :

Température : 18.2 °C
Humidité : 96 %
Point de rosée : 13.3 °C
Vent moyen : 14 km/h
Windchill : 18.3
Pression atm. : 1032 hPa
Rafales max : 45 km/h
Cumul de pluie sur 24H : 0.2 mm

Ménétréols-sous-Vatan est une commune du département Indre (36).
La station météorologique du réseau de l'association la plus proche de Ménétréols-sous-Vatan est celle de Luçay-le-Libre



Icône Facebook Association Météo Centre Icône Twitter Association Météo Centre Icône Chaîne Youtube Association Météo Centre Icône contact Association Météo Centre Icône Insta Association Météo Centre